Portada
METAR-TAF:

METAR-TAF

Aeroports :

Eros Airport

Windhoek, Namíbia

latitud: 22-36-44S, longitud: 017-04-50E, altitud: 1699 m

Observació

L'informe es va fer fa 44 minuts, a les 03:00 UTC
Vent 6 kt del Sud
Temperatura 6°C
Humitat 45%
Pressió 1025 hPa
Visibilitat 10 km o més
sense núvols per sota de 1500 mi sense presència de cumulonimbus.

METAR: FYWE 180300Z 17006KT CAVOK 06/M05 Q1025

Hora: 05:44 (03:44 UTC)

Pronòstic

L'informe es va fer fa 1 hora i 44 minuts, a les 02:00 UTC
Pronòstic vàlid del 18 a les 03 UTC al 18 a les 12 UTC
Vent kt del Nord
Visibilitat 10 km o més
sense núvols per sota de 1500 mi sense presència de cumulonimbus.
Evolucionant progressivament
l' 18 a les 07 UTC al 18 a les 09 UTC
Vent 7 kt del Nord/Nord-Oest

TAF: FYWE 180200Z 1803/1812 00000KT CAVOK BECMG 1807/1809 34007KT

Observacions i pronòstics meteorològics de més de 4000 aeroports (METAR i TAF).

Les estacions disponibles són els punts grocs i vermells al mapa.

Posi el ratolí al punt desitjat per veure el nom de l'estació.

Feu clic per veure les observacions i els pronòstics meteorològics.

Per canviar el mapa: feu clic els botons verds amb una creu de color negre per apropar; al botó verd amb un guió per allunyar la imatge; o en les fletxes verdes per a mapes adjacents.


METAR-TAF: